createdAt,value
2022-09-10T00:01:59.620Z,45.95
2022-09-10T00:04:27.800Z,46.87
2022-09-10T00:06:55.643Z,45.79
2022-09-10T00:09:22.890Z,45.55
2022-09-10T00:11:50.265Z,45.72
2022-09-10T00:14:21.129Z,45.00
2022-09-10T00:16:48.495Z,44.91
2022-09-10T00:19:16.088Z,44.29
2022-09-10T00:21:44.472Z,44.42
2022-09-10T00:24:11.838Z,43.93
2022-09-10T00:26:40.397Z,43.61
2022-09-10T00:29:08.632Z,43.28
2022-09-10T00:31:35.893Z,42.97
2022-09-10T00:34:04.141Z,43.85
2022-09-10T00:36:36.147Z,43.86
2022-09-10T00:39:05.290Z,43.69
2022-09-10T00:41:33.188Z,43.39
2022-09-10T00:44:26.686Z,43.32
2022-09-10T00:46:54.103Z,43.98
2022-09-10T00:49:27.137Z,44.18
2022-09-10T00:51:54.515Z,44.54
2022-09-10T00:54:22.392Z,44.05
2022-09-10T00:56:49.770Z,44.26
2022-09-10T00:59:18.115Z,44.42
2022-09-10T01:01:45.343Z,44.10
2022-09-10T01:04:12.548Z,44.05
2022-09-10T01:06:41.743Z,43.63
2022-09-10T01:09:09.044Z,43.86
2022-09-10T01:11:54.921Z,43.96
2022-09-10T01:14:28.244Z,43.85
2022-09-10T01:16:55.283Z,45.76
2022-09-10T01:19:43.463Z,45.02
2022-09-10T01:22:10.671Z,44.66
2022-09-10T01:24:52.027Z,44.21
2022-09-10T01:27:19.361Z,44.16
2022-09-10T01:29:49.347Z,44.39
2022-09-10T01:32:37.059Z,44.82
2022-09-10T01:35:14.645Z,45.40
2022-09-10T01:37:47.562Z,44.56
2022-09-10T01:40:15.511Z,45.86
2022-09-10T01:42:42.655Z,44.80
2022-09-10T01:45:11.859Z,45.60
2022-09-10T01:47:39.268Z,45.67
2022-09-10T01:50:06.343Z,45.64
2022-09-10T01:52:39.477Z,45.47
2022-09-10T01:55:13.517Z,44.85
2022-09-10T01:57:42.701Z,45.23
2022-09-10T02:00:13.941Z,45.92
2022-09-10T02:02:59.850Z,46.07
2022-09-10T02:05:29.118Z,46.07
2022-09-10T02:08:00.691Z,45.41
2022-09-10T02:10:28.450Z,45.97
2022-09-10T02:12:56.146Z,47.59
2022-09-10T02:15:24.578Z,48.00
2022-09-10T02:17:53.707Z,46.60
2022-09-10T02:20:21.461Z,48.23
2022-09-10T02:22:55.297Z,48.26
2022-09-10T02:25:23.863Z,50.94
2022-09-10T02:27:56.176Z,50.92
2022-09-10T02:30:24.850Z,50.36
2022-09-10T02:32:52.450Z,50.84
2022-09-10T02:35:20.828Z,50.86
2022-09-10T02:37:50.629Z,51.71
2022-09-10T02:40:21.368Z,53.53
2022-09-10T02:42:48.596Z,52.86
2022-09-10T02:45:16.627Z,52.17
2022-09-10T02:47:44.175Z,51.81
2022-09-10T02:50:11.684Z,50.80
2022-09-10T02:52:39.066Z,48.91
2022-09-10T02:55:06.828Z,51.33
2022-09-10T02:57:33.980Z,50.86
2022-09-10T03:00:01.667Z,49.82
2022-09-10T03:02:29.202Z,50.64
2022-09-10T03:04:56.354Z,51.94
2022-09-10T03:07:24.974Z,49.26
2022-09-10T03:09:52.486Z,51.83
2022-09-10T03:12:21.808Z,52.39
2022-09-10T03:14:49.798Z,50.97
2022-09-10T03:17:17.209Z,51.51
2022-09-10T03:19:44.350Z,49.36
2022-09-10T03:22:11.461Z,48.35
2022-09-10T03:24:39.046Z,49.12
2022-09-10T03:27:06.893Z,48.38
2022-09-10T03:29:34.008Z,46.65
2022-09-10T03:32:01.486Z,48.84
2022-09-10T03:34:28.639Z,47.97
2022-09-10T03:36:55.806Z,48.88
2022-09-10T03:39:23.193Z,48.93
2022-09-10T03:41:52.093Z,49.39
2022-09-10T03:44:20.533Z,50.16
2022-09-10T03:46:49.596Z,49.64
2022-09-10T03:49:17.263Z,49.94
2022-09-10T03:51:44.409Z,48.28
2022-09-10T03:54:14.017Z,50.47
2022-09-10T03:56:41.738Z,49.28
2022-09-10T03:59:08.985Z,49.84
2022-09-10T04:01:37.047Z,51.62
2022-09-10T04:04:05.523Z,52.35
2022-09-10T04:06:33.167Z,49.81
2022-09-10T04:09:01.260Z,49.26
2022-09-10T04:11:28.818Z,48.21
2022-09-10T04:13:56.795Z,49.17
2022-09-10T04:16:24.072Z,48.26
2022-09-10T04:18:51.485Z,48.26
2022-09-10T04:21:18.692Z,48.71
2022-09-10T04:23:47.268Z,47.53
2022-09-10T04:26:15.687Z,48.36
2022-09-10T04:28:43.317Z,48.49
2022-09-10T04:31:10.725Z,48.62
2022-09-10T04:33:38.915Z,47.96
2022-09-10T04:36:06.232Z,49.40
2022-09-10T04:38:40.097Z,48.97
2022-09-10T04:41:07.927Z,49.78
2022-09-10T04:43:35.272Z,50.28
2022-09-10T04:46:02.606Z,49.56
2022-09-10T04:48:32.024Z,48.97
2022-09-10T04:51:15.693Z,50.66
2022-09-10T04:53:44.728Z,49.66
2022-09-10T04:56:12.341Z,51.62
2022-09-10T04:58:41.084Z,51.04
2022-09-10T05:01:08.854Z,53.03
2022-09-10T05:03:36.207Z,50.58
2022-09-10T05:06:03.650Z,51.32
2022-09-10T05:08:31.673Z,52.16
2022-09-10T05:11:00.670Z,50.47
2022-09-10T05:13:28.904Z,52.03
2022-09-10T05:15:58.047Z,50.09
2022-09-10T05:18:26.391Z,51.30
2022-09-10T05:20:53.682Z,52.50
2022-09-10T05:23:21.139Z,50.90
2022-09-10T05:25:48.817Z,50.58
2022-09-10T05:28:16.466Z,49.61
2022-09-10T05:30:51.352Z,51.47
2022-09-10T05:33:19.947Z,48.43
2022-09-10T05:35:53.626Z,48.48
2022-09-10T05:38:21.276Z,48.70
2022-09-10T05:40:49.020Z,50.94
2022-09-10T05:43:16.268Z,49.60
2022-09-10T05:45:44.152Z,51.87
2022-09-10T05:48:11.621Z,50.48
2022-09-10T05:50:38.731Z,49.36
2022-09-10T05:53:06.273Z,48.71
2022-09-10T05:55:33.697Z,47.88
2022-09-10T05:58:02.886Z,50.59
2022-09-10T06:00:30.317Z,49.35
2022-09-10T06:02:58.110Z,51.39
2022-09-10T06:05:25.745Z,48.81
2022-09-10T06:07:53.274Z,50.27
2022-09-10T06:10:21.011Z,49.92
2022-09-10T06:12:49.714Z,49.84
2022-09-10T06:15:16.863Z,50.90
2022-09-10T06:17:44.707Z,52.14
2022-09-10T06:20:13.520Z,50.22
2022-09-10T06:22:41.317Z,51.80
2022-09-10T06:25:09.310Z,49.26
2022-09-10T06:27:36.537Z,51.43
2022-09-10T06:30:04.309Z,49.48
2022-09-10T06:32:34.565Z,50.59
2022-09-10T06:35:02.466Z,49.98
2022-09-10T06:37:34.434Z,49.17
2022-09-10T06:40:02.222Z,51.25
2022-09-10T06:42:29.928Z,52.20
2022-09-10T06:44:57.595Z,52.69
2022-09-10T06:50:12.460Z,50.61
2022-09-10T06:52:40.099Z,51.76
2022-09-10T06:55:08.279Z,52.01
2022-09-10T06:57:36.634Z,50.29
2022-09-10T07:00:04.362Z,49.81
2022-09-10T07:02:31.793Z,50.11
2022-09-10T07:04:59.387Z,51.74
2022-09-10T07:07:28.339Z,50.94
2022-09-10T07:09:55.823Z,53.70
2022-09-10T07:12:23.317Z,51.37
2022-09-10T07:14:50.710Z,54.29
2022-09-10T07:17:21.044Z,54.00
2022-09-10T07:19:48.786Z,54.57
2022-09-10T07:22:17.296Z,53.31
2022-09-10T07:24:45.970Z,55.35
2022-09-10T07:27:14.682Z,53.56
2022-09-10T07:29:42.728Z,51.85
2022-09-10T07:32:13.382Z,51.86
2022-09-10T07:34:41.259Z,51.07
2022-09-10T07:37:08.671Z,51.48
2022-09-10T07:39:36.040Z,50.48
2022-09-10T07:42:03.244Z,49.24
2022-09-10T07:44:32.498Z,49.62
2022-09-10T07:47:01.348Z,47.01
2022-09-10T07:49:28.482Z,50.19
2022-09-10T07:51:59.817Z,50.86
2022-09-10T07:54:28.552Z,50.29
2022-09-10T07:56:57.594Z,50.44
2022-09-10T07:59:24.842Z,50.91
2022-09-10T08:01:53.241Z,50.24
2022-09-10T08:04:20.736Z,47.69
2022-09-10T08:06:48.034Z,51.05
2022-09-10T08:09:16.406Z,49.97
2022-09-10T08:11:45.059Z,51.30
2022-09-10T08:14:13.399Z,50.87
2022-09-10T08:16:44.266Z,50.83
2022-09-10T08:19:14.958Z,50.42
2022-09-10T08:21:42.147Z,50.74
2022-09-10T08:24:10.505Z,49.76
2022-09-10T08:26:38.325Z,50.94
2022-09-10T08:29:05.580Z,49.88
2022-09-10T08:31:32.738Z,50.96
2022-09-10T08:34:01.567Z,50.15
2022-09-10T08:36:28.812Z,49.83
2022-09-10T08:39:00.654Z,51.73
2022-09-10T08:41:38.463Z,51.41
2022-09-10T08:44:09.402Z,49.64
2022-09-10T08:46:45.806Z,49.56
2022-09-10T08:49:51.612Z,50.26
2022-09-10T08:52:29.825Z,49.35
2022-09-10T08:55:02.108Z,47.95
2022-09-10T08:57:33.763Z,48.33
2022-09-10T09:00:01.119Z,47.40
2022-09-10T09:02:48.472Z,48.46
2022-09-10T09:05:19.040Z,50.26
2022-09-10T09:07:47.114Z,47.87
2022-09-10T09:10:19.680Z,48.59
2022-09-10T09:12:52.672Z,50.19
2022-09-10T09:15:29.209Z,47.97
2022-09-10T09:18:06.673Z,49.20
2022-09-10T09:20:33.936Z,47.51
2022-09-10T09:23:14.511Z,45.63
2022-09-10T09:25:44.772Z,47.50
2022-09-10T09:28:15.233Z,44.71
2022-09-10T09:30:49.246Z,46.80
2022-09-10T09:33:18.809Z,46.13
2022-09-10T09:35:47.371Z,45.65
2022-09-10T09:38:24.740Z,45.00
2022-09-10T09:40:56.329Z,43.75
2022-09-10T09:43:26.465Z,45.07
2022-09-10T09:45:54.422Z,44.31
2022-09-10T09:48:22.345Z,43.92
2022-09-10T09:50:56.004Z,41.13
2022-09-10T09:53:25.306Z,43.95
2022-09-10T09:55:53.803Z,42.44
2022-09-10T09:58:30.262Z,38.93
2022-09-10T10:01:03.459Z,41.72
2022-09-10T10:03:53.172Z,42.20
2022-09-10T10:06:24.788Z,42.80
2022-09-10T10:08:56.468Z,40.14
2022-09-10T10:11:23.932Z,39.25
2022-09-10T10:13:54.284Z,40.15
2022-09-10T10:16:26.884Z,38.56
2022-09-10T10:18:54.274Z,40.42
2022-09-10T10:21:30.983Z,38.42
2022-09-10T10:23:58.411Z,37.89
2022-09-10T10:26:30.357Z,38.75
2022-09-10T10:28:58.657Z,38.63
2022-09-10T10:31:41.787Z,39.44
2022-09-10T10:34:18.064Z,36.41
2022-09-10T10:36:45.366Z,36.23
2022-09-10T10:39:19.227Z,38.25
2022-09-10T10:42:04.805Z,37.72
2022-09-10T10:44:37.787Z,37.64
2022-09-10T10:47:20.440Z,37.77
2022-09-10T10:49:47.504Z,34.70
2022-09-10T10:52:24.555Z,37.00
2022-09-10T10:54:56.946Z,36.91
2022-09-10T10:57:31.219Z,32.73
2022-09-10T11:00:07.615Z,34.65
2022-09-10T11:02:40.366Z,36.44
2022-09-10T11:05:16.631Z,34.40
2022-09-10T11:07:44.001Z,35.82
2022-09-10T11:10:12.961Z,34.70
2022-09-10T11:12:41.925Z,34.70
2022-09-10T11:15:15.302Z,36.59
2022-09-10T11:18:05.772Z,33.00
2022-09-10T11:20:35.528Z,34.85
2022-09-10T11:23:41.207Z,33.68
2022-09-10T11:26:27.165Z,32.98
2022-09-10T11:28:59.601Z,33.18
2022-09-10T11:31:38.569Z,33.61
2022-09-10T11:34:07.074Z,33.97
2022-09-10T11:36:37.450Z,35.57
2022-09-10T11:39:07.223Z,35.19
2022-09-10T11:41:34.598Z,35.80
2022-09-10T11:44:07.699Z,34.66
2022-09-10T11:46:39.429Z,33.61
2022-09-10T11:49:07.943Z,34.60
2022-09-10T11:51:38.427Z,33.07
2022-09-10T11:54:07.323Z,32.39
2022-09-10T11:56:46.872Z,32.75
2022-09-10T11:59:14.216Z,31.71
2022-09-10T12:02:02.545Z,31.62
2022-09-10T12:04:50.272Z,32.70
2022-09-10T12:07:32.780Z,33.79
2022-09-10T12:10:05.418Z,32.96
2022-09-10T12:12:51.450Z,33.06
2022-09-10T12:15:23.117Z,32.54
2022-09-10T12:17:56.326Z,33.38
2022-09-10T12:20:27.145Z,33.75
2022-09-10T12:22:54.757Z,32.13
2022-09-10T12:25:21.819Z,31.65
2022-09-10T12:27:49.204Z,31.13
2022-09-10T12:30:27.445Z,32.73
2022-09-10T12:33:00.516Z,32.32
2022-09-10T12:35:31.215Z,31.35
2022-09-10T12:38:25.035Z,30.93
2022-09-10T12:40:58.170Z,32.04
2022-09-10T12:43:47.238Z,32.96
2022-09-10T12:46:19.862Z,32.99
2022-09-10T12:48:56.678Z,32.07
2022-09-10T12:51:48.156Z,30.56
2022-09-10T12:54:34.383Z,31.56
2022-09-10T12:57:21.157Z,31.37
2022-09-10T12:59:58.898Z,33.09
2022-09-10T13:02:36.074Z,32.17
2022-09-10T13:05:23.731Z,31.76
2022-09-10T13:08:02.964Z,33.02
2022-09-10T13:10:30.433Z,32.36
2022-09-10T13:12:59.470Z,32.54
2022-09-10T13:15:27.624Z,31.74
2022-09-10T13:17:54.998Z,33.67
2022-09-10T13:20:22.041Z,32.99
2022-09-10T13:22:52.446Z,33.44
2022-09-10T13:25:41.038Z,32.33
2022-09-10T13:28:27.080Z,31.75
2022-09-10T13:31:13.104Z,33.39
2022-09-10T13:33:43.149Z,32.58
2022-09-10T13:36:25.911Z,31.41
2022-09-10T13:38:58.578Z,32.39
2022-09-10T13:41:44.757Z,32.52
2022-09-10T13:44:15.897Z,30.51
2022-09-10T13:46:44.447Z,31.59
2022-09-10T13:49:16.896Z,32.10
2022-09-10T13:51:54.539Z,31.30
2022-09-10T13:54:41.898Z,31.52
2022-09-10T13:57:15.850Z,31.34
2022-09-10T13:59:42.984Z,31.00
2022-09-10T14:02:10.355Z,31.29
2022-09-10T14:04:41.977Z,30.68
2022-09-10T14:07:21.073Z,31.44
2022-09-10T14:09:54.189Z,30.68
2022-09-10T14:12:21.524Z,30.68
2022-09-10T14:14:52.053Z,30.19
2022-09-10T14:17:23.482Z,29.53
2022-09-10T14:19:59.280Z,30.84
2022-09-10T14:22:26.519Z,32.12
2022-09-10T14:24:59.745Z,31.87
2022-09-10T14:27:33.155Z,32.19
2022-09-10T14:30:18.397Z,31.37
2022-09-10T14:32:48.502Z,30.03
2022-09-10T14:35:34.560Z,30.98
2022-09-10T14:38:04.926Z,29.08
2022-09-10T14:40:38.403Z,28.90
2022-09-10T14:43:28.317Z,29.82
2022-09-10T14:45:55.901Z,31.51
2022-09-10T14:48:33.570Z,30.76
2022-09-10T14:51:10.790Z,30.43
2022-09-10T14:53:38.137Z,30.51
2022-09-10T14:56:06.268Z,30.16
2022-09-10T14:58:33.675Z,30.04
2022-09-10T15:01:00.795Z,30.91
2022-09-10T15:03:28.178Z,31.31
2022-09-10T15:05:55.289Z,31.00
2022-09-10T15:08:22.398Z,32.55
2022-09-10T15:10:50.215Z,30.25
2022-09-10T15:13:18.847Z,29.33
2022-09-10T15:15:46.713Z,30.93
2022-09-10T15:18:14.559Z,29.92
2022-09-10T15:20:41.683Z,30.56
2022-09-10T15:23:08.927Z,28.84
2022-09-10T15:25:46.501Z,30.20
2022-09-10T15:28:13.581Z,29.41
2022-09-10T15:30:41.606Z,29.17
2022-09-10T15:33:12.339Z,29.33
2022-09-10T15:35:39.441Z,29.91
2022-09-10T15:38:06.969Z,29.98
2022-09-10T15:40:34.081Z,30.13
2022-09-10T15:43:01.167Z,30.68
2022-09-10T15:45:28.689Z,29.80
2022-09-10T15:47:55.776Z,29.54
2022-09-10T15:50:22.860Z,30.08
2022-09-10T15:52:50.298Z,29.28
2022-09-10T15:55:19.683Z,28.98
2022-09-10T15:57:50.449Z,29.94
2022-09-10T16:00:18.034Z,29.17
2022-09-10T16:02:49.419Z,29.14
2022-09-10T16:05:16.577Z,29.90
2022-09-10T16:07:44.511Z,30.04
2022-09-10T16:10:12.636Z,29.90
2022-09-10T16:12:39.770Z,30.16
2022-09-10T16:15:07.133Z,30.93
2022-09-10T16:17:34.519Z,29.90
2022-09-10T16:20:01.734Z,30.71
2022-09-10T16:22:30.459Z,30.65
2022-09-10T16:24:57.993Z,31.50
2022-09-10T16:27:25.122Z,30.22
2022-09-10T16:29:52.628Z,30.98
2022-09-10T16:32:20.053Z,30.91
2022-09-10T16:34:47.174Z,30.55
2022-09-10T16:37:14.268Z,31.23
2022-09-10T16:39:41.683Z,32.51
2022-09-10T16:42:09.701Z,32.09
2022-09-10T16:44:36.817Z,32.76
2022-09-10T16:47:04.257Z,32.68
2022-09-10T16:49:32.588Z,32.34
2022-09-10T16:51:59.698Z,32.83
2022-09-10T16:54:27.058Z,32.69
2022-09-10T16:56:54.180Z,32.80
2022-09-10T16:59:22.072Z,33.64
2022-09-10T17:01:50.751Z,34.02
2022-09-10T17:04:26.298Z,33.45
2022-09-10T17:06:56.317Z,32.82
2022-09-10T17:09:24.852Z,33.37
2022-09-10T17:11:52.018Z,32.57
2022-09-10T17:14:19.447Z,32.10
2022-09-10T17:16:48.074Z,32.54
2022-09-10T17:19:23.593Z,33.85
2022-09-10T17:21:51.647Z,32.65
2022-09-10T17:24:20.830Z,33.35
2022-09-10T17:26:47.947Z,34.06
2022-09-10T17:29:16.532Z,33.21
2022-09-10T17:31:44.106Z,32.41
2022-09-10T17:34:14.116Z,31.68
2022-09-10T17:36:42.322Z,31.98
2022-09-10T17:39:09.513Z,30.76
2022-09-10T17:41:36.703Z,30.61
2022-09-10T17:44:04.109Z,31.65
2022-09-10T17:46:31.515Z,31.04
2022-09-10T17:48:59.977Z,31.54
2022-09-10T17:51:31.267Z,31.16
2022-09-10T17:53:58.413Z,31.08
2022-09-10T17:56:26.129Z,30.57
2022-09-10T17:58:57.616Z,31.13
2022-09-10T18:01:26.037Z,32.04
2022-09-10T18:03:53.695Z,31.11
2022-09-10T18:06:25.170Z,32.57
2022-09-10T18:08:52.459Z,33.20
2022-09-10T18:11:24.038Z,31.60
2022-09-10T18:13:52.319Z,33.60
2022-09-10T18:16:21.841Z,33.57
2022-09-10T18:19:14.233Z,32.41
2022-09-10T18:21:42.285Z,32.54
2022-09-10T18:24:10.756Z,33.11
2022-09-10T18:26:39.636Z,32.91
2022-09-10T18:29:08.100Z,33.55
2022-09-10T18:31:36.825Z,34.13
2022-09-10T18:34:04.691Z,34.12
2022-09-10T18:36:32.444Z,34.07
2022-09-10T18:39:03.863Z,36.43
2022-09-10T18:41:32.011Z,36.02
2022-09-10T18:44:01.061Z,34.54
2022-09-10T18:46:31.148Z,35.26
2022-09-10T18:48:58.552Z,34.29
2022-09-10T18:51:26.859Z,34.32
2022-09-10T18:53:54.677Z,34.49
2022-09-10T18:56:25.592Z,33.80
2022-09-10T18:59:05.033Z,33.18
2022-09-10T19:01:33.167Z,33.30
2022-09-10T19:04:01.242Z,33.30
2022-09-10T19:06:29.698Z,32.94
2022-09-10T19:09:00.991Z,33.09
2022-09-10T19:11:36.633Z,32.98
2022-09-10T19:14:06.901Z,32.78
2022-09-10T19:16:35.562Z,32.97
2022-09-10T19:19:05.659Z,33.15
2022-09-10T19:21:35.084Z,33.05
2022-09-10T19:24:02.972Z,33.14
2022-09-10T19:26:34.096Z,33.22
2022-09-10T19:29:01.851Z,33.06
2022-09-10T19:31:30.207Z,32.91
2022-09-10T19:34:01.818Z,33.05
2022-09-10T19:36:33.585Z,33.18
2022-09-10T19:39:02.109Z,33.76
2022-09-10T19:41:29.777Z,33.88
2022-09-10T19:43:56.948Z,33.75
2022-09-10T19:46:25.328Z,33.97
2022-09-10T19:48:53.296Z,34.44
2022-09-10T19:51:20.898Z,35.30
2022-09-10T19:53:49.567Z,34.83
2022-09-10T19:56:20.576Z,35.16
2022-09-10T19:58:49.735Z,36.14
2022-09-10T20:01:36.647Z,36.22
2022-09-10T20:04:05.105Z,36.44
2022-09-10T20:06:32.733Z,36.90
2022-09-10T20:09:00.258Z,36.43
2022-09-10T20:11:32.629Z,36.31
2022-09-10T20:14:00.791Z,36.34
2022-09-10T20:16:28.732Z,37.03
2022-09-10T20:18:56.162Z,36.30
2022-09-10T20:21:24.517Z,37.16
2022-09-10T20:23:52.491Z,37.84
2022-09-10T20:26:23.239Z,38.90
2022-09-10T20:28:52.184Z,37.55
2022-09-10T20:31:19.737Z,39.90
2022-09-10T20:33:46.941Z,39.56
2022-09-10T20:36:15.201Z,39.17
2022-09-10T20:38:43.346Z,39.25
2022-09-10T20:41:11.846Z,38.50
2022-09-10T20:43:39.256Z,40.24
2022-09-10T20:46:09.205Z,38.36
2022-09-10T20:48:36.331Z,38.36
2022-09-10T20:51:03.745Z,38.56
2022-09-10T20:53:34.576Z,37.64
2022-09-10T20:56:06.432Z,37.45
2022-09-10T20:58:36.885Z,37.41
2022-09-10T21:01:07.139Z,36.78
2022-09-10T21:03:35.088Z,37.47
2022-09-10T21:06:02.208Z,36.96
2022-09-10T21:08:31.703Z,36.45
2022-09-10T21:11:04.947Z,36.24
2022-09-10T21:13:33.778Z,36.17
2022-09-10T21:16:24.207Z,35.96
2022-09-10T21:18:54.743Z,35.99
2022-09-10T21:21:23.458Z,36.29
2022-09-10T21:23:51.474Z,36.22
2022-09-10T21:26:19.839Z,36.16
2022-09-10T21:28:48.598Z,35.90
2022-09-10T21:31:15.748Z,35.78
2022-09-10T21:33:43.358Z,36.15
2022-09-10T21:36:11.418Z,35.76
2022-09-10T21:38:38.633Z,36.21
2022-09-10T21:41:06.551Z,36.24
2022-09-10T21:43:34.746Z,36.45
2022-09-10T21:46:02.328Z,36.64
2022-09-10T21:48:29.705Z,37.08
2022-09-10T21:51:00.376Z,37.10
2022-09-10T21:53:27.793Z,36.81
2022-09-10T21:55:55.570Z,36.82
2022-09-10T21:58:23.576Z,36.91
2022-09-10T22:00:50.642Z,36.47
2022-09-10T22:03:18.036Z,36.38
2022-09-10T22:05:46.364Z,36.14
2022-09-10T22:08:13.624Z,36.72
2022-09-10T22:10:41.981Z,37.06
2022-09-10T22:13:09.426Z,37.39
2022-09-10T22:15:40.138Z,37.38
2022-09-10T22:18:08.288Z,37.75
2022-09-10T22:20:35.640Z,37.12
2022-09-10T22:23:03.117Z,37.13
2022-09-10T22:25:31.045Z,37.35
2022-09-10T22:27:58.338Z,38.00
2022-09-10T22:30:29.016Z,38.96
2022-09-10T22:32:56.877Z,38.54
2022-09-10T22:35:25.502Z,39.89
2022-09-10T22:37:56.465Z,38.86
2022-09-10T22:40:24.433Z,38.39
2022-09-10T22:42:51.915Z,40.12
2022-09-10T22:45:20.709Z,40.08
2022-09-10T22:47:48.402Z,38.97
2022-09-10T22:50:15.543Z,39.48
2022-09-10T22:52:43.758Z,39.83
2022-09-10T22:55:11.245Z,40.19
2022-09-10T22:57:39.570Z,40.11
2022-09-10T23:00:07.394Z,38.91
2022-09-10T23:02:35.938Z,38.83
2022-09-10T23:05:03.064Z,39.59
2022-09-10T23:07:30.180Z,38.69
2022-09-10T23:09:57.579Z,37.87
2022-09-10T23:12:25.525Z,38.52
2022-09-10T23:14:52.641Z,38.41
2022-09-10T23:17:22.559Z,38.10
2022-09-10T23:19:49.908Z,38.27
2022-09-10T23:22:17.020Z,37.93
2022-09-10T23:24:44.417Z,37.68
2022-09-10T23:27:13.433Z,37.82
2022-09-10T23:29:41.546Z,37.54
2022-09-10T23:32:08.935Z,37.55
2022-09-10T23:34:36.066Z,37.62
2022-09-10T23:37:03.303Z,37.73
2022-09-10T23:39:30.767Z,36.91
2022-09-10T23:41:58.545Z,38.30
2022-09-10T23:44:25.811Z,38.25
2022-09-10T23:46:53.586Z,39.64
2022-09-10T23:49:20.713Z,41.06
2022-09-10T23:51:48.993Z,40.56
2022-09-10T23:54:16.415Z,40.22
2022-09-10T23:56:44.890Z,40.23
2022-09-10T23:59:12.112Z,39.43
